createdAt,value
2023-05-23T00:01:18.724Z,20.40
2023-05-23T00:04:21.197Z,20.40
2023-05-23T00:07:23.573Z,20.40
2023-05-23T00:10:25.892Z,20.40
2023-05-23T00:13:28.238Z,20.40
2023-05-23T00:16:30.588Z,20.40
2023-05-23T00:19:36.742Z,20.40
2023-05-23T00:22:43.233Z,20.40
2023-05-23T00:25:48.658Z,20.40
2023-05-23T00:28:51.071Z,20.40
2023-05-23T00:31:53.632Z,20.40
2023-05-23T00:34:56.331Z,20.40
2023-05-23T00:37:58.857Z,20.40
2023-05-23T00:41:02.496Z,20.40
2023-05-23T00:44:05.747Z,20.40
2023-05-23T00:47:08.956Z,20.40
2023-05-23T00:50:15.920Z,20.40
2023-05-23T00:53:18.848Z,20.40
2023-05-23T00:56:21.613Z,20.40
2023-05-23T00:59:27.586Z,20.40
2023-05-23T01:02:32.508Z,20.40
2023-05-23T01:05:34.914Z,20.40
2023-05-23T01:08:37.338Z,20.30
2023-05-23T01:12:06.052Z,20.40
2023-05-23T01:15:09.038Z,20.40
2023-05-23T01:18:20.062Z,20.40
2023-05-23T01:21:24.548Z,20.30
2023-05-23T01:24:26.811Z,20.40
2023-05-23T01:27:54.387Z,20.30
2023-05-23T01:30:59.025Z,20.30
2023-05-23T01:34:02.005Z,20.30
2023-05-23T01:37:12.053Z,20.30
2023-05-23T01:40:14.262Z,20.30
2023-05-23T01:43:16.762Z,20.30
2023-05-23T01:46:20.506Z,20.30
2023-05-23T01:49:24.374Z,20.30
2023-05-23T01:52:28.702Z,20.30
2023-05-23T01:55:31.498Z,20.30
2023-05-23T01:58:34.074Z,20.30
2023-05-23T02:01:38.620Z,20.30
2023-05-23T02:04:41.022Z,20.30
2023-05-23T02:07:43.659Z,20.30
2023-05-23T02:10:45.957Z,20.30
2023-05-23T02:13:48.388Z,20.30
2023-05-23T02:16:53.002Z,20.30
2023-05-23T02:19:56.991Z,20.30
2023-05-23T02:22:59.307Z,20.30
2023-05-23T02:26:01.902Z,20.30
2023-05-23T02:29:04.305Z,20.30
2023-05-23T02:32:06.895Z,20.30
2023-05-23T02:35:10.567Z,20.30
2023-05-23T02:38:12.985Z,20.30
2023-05-23T02:41:17.061Z,20.30
2023-05-23T02:44:20.008Z,20.20
2023-05-23T02:47:22.348Z,20.20
2023-05-23T02:50:24.632Z,20.30
2023-05-23T02:53:27.249Z,20.20
2023-05-23T02:56:30.716Z,20.20
2023-05-23T02:59:33.016Z,20.20
2023-05-23T03:02:35.327Z,20.30
2023-05-23T03:05:38.025Z,20.30
2023-05-23T03:08:44.043Z,20.20
2023-05-23T03:11:46.651Z,20.20
2023-05-23T03:14:49.150Z,20.20
2023-05-23T03:17:51.515Z,20.20
2023-05-23T03:20:54.006Z,20.20
2023-05-23T03:23:58.672Z,20.20
2023-05-23T03:27:02.208Z,20.20
2023-05-23T03:30:05.109Z,20.20
2023-05-23T03:33:07.779Z,20.20
2023-05-23T03:36:10.232Z,20.20
2023-05-23T03:39:12.659Z,20.20
2023-05-23T03:42:14.982Z,20.20
2023-05-23T03:45:18.537Z,20.20
2023-05-23T03:48:21.246Z,20.20
2023-05-23T03:51:24.520Z,20.20
2023-05-23T03:54:26.931Z,20.20
2023-05-23T03:57:29.209Z,20.20
2023-05-23T04:00:31.882Z,20.20
2023-05-23T04:03:36.006Z,20.20
2023-05-23T04:06:39.716Z,20.20
2023-05-23T04:09:42.015Z,20.20
2023-05-23T04:12:48.284Z,20.20
2023-05-23T04:15:53.157Z,20.20
2023-05-23T04:18:56.146Z,20.20
2023-05-23T04:21:58.454Z,20.20
2023-05-23T04:25:01.374Z,20.20
2023-05-23T04:28:08.141Z,20.10
2023-05-23T04:31:10.532Z,20.20
2023-05-23T04:34:13.585Z,20.10
2023-05-23T04:37:17.687Z,20.20
2023-05-23T04:40:20.387Z,20.20
2023-05-23T04:43:42.751Z,20.10
2023-05-23T04:47:02.805Z,20.20
2023-05-23T04:50:18.853Z,20.10
2023-05-23T04:53:21.521Z,20.10
2023-05-23T04:56:28.484Z,20.10
2023-05-23T04:59:32.179Z,20.10
2023-05-23T05:02:35.647Z,20.10
2023-05-23T05:05:38.785Z,20.20
2023-05-23T05:08:41.092Z,20.10
2023-05-23T05:11:45.198Z,20.10
2023-05-23T05:14:47.570Z,20.10
2023-05-23T05:17:50.263Z,20.10
2023-05-23T05:20:55.199Z,20.10
2023-05-23T05:23:57.889Z,20.20
2023-05-23T05:27:00.256Z,20.10
2023-05-23T05:30:05.299Z,20.10
2023-05-23T05:33:10.420Z,20.20
2023-05-23T05:36:13.061Z,20.10
2023-05-23T05:39:16.284Z,20.20
2023-05-23T05:42:18.664Z,20.10
2023-05-23T05:45:21.141Z,20.10
2023-05-23T05:48:24.603Z,20.10
2023-05-23T05:51:29.762Z,20.10
2023-05-23T05:54:32.098Z,20.20
2023-05-23T05:57:39.079Z,20.10
2023-05-23T06:00:44.521Z,20.20
2023-05-23T06:03:47.013Z,20.20
2023-05-23T06:06:49.581Z,20.10
2023-05-23T06:09:52.151Z,20.10
2023-05-23T06:12:54.524Z,20.20
2023-05-23T06:15:57.135Z,20.20
2023-05-23T06:19:00.213Z,20.20
2023-05-23T06:22:04.812Z,20.20
2023-05-23T06:25:08.024Z,20.20
2023-05-23T06:28:10.527Z,20.20
2023-05-23T06:31:12.977Z,20.20
2023-05-23T06:34:16.411Z,20.20
2023-05-23T06:37:18.735Z,20.30
2023-05-23T06:40:21.171Z,20.30
2023-05-23T06:43:23.612Z,20.30
2023-05-23T06:46:29.669Z,20.30
2023-05-23T06:49:32.179Z,20.30
2023-05-23T06:52:34.501Z,20.30
2023-05-23T06:55:38.236Z,20.30
2023-05-23T06:58:44.077Z,20.30
2023-05-23T07:01:47.779Z,20.30
2023-05-23T07:04:50.509Z,20.40
2023-05-23T07:08:07.600Z,20.40
2023-05-23T07:11:10.014Z,20.40
2023-05-23T07:14:20.542Z,20.40
2023-05-23T07:17:23.118Z,20.40
2023-05-23T07:20:25.601Z,20.40
2023-05-23T07:23:37.316Z,20.40
2023-05-23T07:26:39.752Z,20.40
2023-05-23T07:29:42.381Z,20.50
2023-05-23T07:32:46.302Z,20.50
2023-05-23T07:35:51.266Z,20.50
2023-05-23T07:38:53.750Z,20.50
2023-05-23T07:41:56.222Z,20.50
2023-05-23T07:44:58.639Z,20.50
2023-05-23T07:48:01.182Z,20.60
2023-05-23T07:51:06.290Z,20.60
2023-05-23T07:54:09.548Z,20.60
2023-05-23T07:57:16.961Z,20.60
2023-05-23T08:00:20.448Z,20.60
2023-05-23T08:03:26.728Z,20.60
2023-05-23T08:06:45.754Z,20.60
2023-05-23T08:10:01.939Z,20.60
2023-05-23T08:13:07.027Z,20.70
2023-05-23T08:16:16.096Z,20.70
2023-05-23T08:19:18.577Z,20.70
2023-05-23T08:22:21.816Z,20.70
2023-05-23T08:25:25.282Z,20.70
2023-05-23T08:28:28.200Z,20.70
2023-05-23T08:31:31.504Z,20.70
2023-05-23T08:34:34.726Z,20.80
2023-05-23T08:37:37.123Z,20.80
2023-05-23T08:40:41.853Z,20.80
2023-05-23T08:43:48.201Z,20.80
2023-05-23T08:46:58.711Z,20.80
2023-05-23T08:50:26.650Z,20.80
2023-05-23T08:53:31.408Z,20.90
2023-05-23T08:56:41.409Z,20.90
2023-05-23T08:59:46.282Z,20.90
2023-05-23T09:02:49.156Z,20.90
2023-05-23T09:06:13.653Z,20.90
2023-05-23T09:09:17.879Z,20.90
2023-05-23T09:12:22.596Z,20.90
2023-05-23T09:15:27.601Z,21.00
2023-05-23T09:18:39.742Z,21.00
2023-05-23T09:21:45.802Z,21.00
2023-05-23T09:25:03.306Z,21.00
2023-05-23T09:28:06.564Z,21.00
2023-05-23T09:31:12.708Z,21.10
2023-05-23T09:34:15.142Z,21.10
2023-05-23T09:37:19.753Z,21.00
2023-05-23T09:40:22.253Z,21.10
2023-05-23T09:43:31.015Z,21.10
2023-05-23T09:46:37.473Z,21.10
2023-05-23T09:49:41.794Z,21.10
2023-05-23T09:52:44.411Z,21.10
2023-05-23T09:55:47.158Z,21.10
2023-05-23T09:58:50.459Z,21.10
2023-05-23T10:01:55.796Z,21.20
2023-05-23T10:04:58.939Z,21.20
2023-05-23T10:08:05.321Z,21.20
2023-05-23T10:11:13.755Z,21.20
2023-05-23T10:14:17.619Z,21.20
2023-05-23T10:17:37.494Z,21.20
2023-05-23T10:20:43.800Z,21.20
2023-05-23T10:23:48.298Z,21.20
2023-05-23T10:26:50.668Z,21.20
2023-05-23T10:29:53.209Z,21.20
2023-05-23T10:32:58.039Z,21.20
2023-05-23T10:36:09.570Z,21.20
2023-05-23T10:39:23.253Z,21.20
2023-05-23T10:42:34.399Z,21.20
2023-05-23T10:45:47.291Z,21.20
2023-05-23T10:48:57.615Z,21.20
2023-05-23T10:52:00.757Z,21.20
2023-05-23T10:55:03.241Z,21.20
2023-05-23T10:58:12.070Z,21.20
2023-05-23T11:01:18.247Z,21.20
2023-05-23T11:04:28.467Z,21.20
2023-05-23T11:07:31.396Z,21.30
2023-05-23T11:10:33.718Z,21.30
2023-05-23T11:13:58.026Z,21.30
2023-05-23T11:17:12.761Z,21.30
2023-05-23T11:20:17.237Z,21.30
2023-05-23T11:23:19.787Z,21.30
2023-05-23T11:26:32.527Z,21.30
2023-05-23T11:29:35.130Z,21.30
2023-05-23T11:32:38.049Z,21.30
2023-05-23T11:35:52.058Z,21.30
2023-05-23T11:38:55.520Z,21.30
2023-05-23T11:42:05.014Z,21.30
2023-05-23T11:45:09.807Z,21.30
2023-05-23T11:48:14.261Z,21.30
2023-05-23T11:51:17.525Z,21.40
2023-05-23T11:54:26.855Z,21.40
2023-05-23T11:57:29.310Z,21.40
2023-05-23T12:00:31.891Z,21.40
2023-05-23T12:03:48.621Z,21.40
2023-05-23T12:06:51.904Z,21.40
2023-05-23T12:09:57.554Z,21.40
2023-05-23T12:13:00.074Z,21.40
2023-05-23T12:16:04.770Z,21.40
2023-05-23T12:19:07.708Z,21.40
2023-05-23T12:22:10.099Z,21.40
2023-05-23T12:25:12.530Z,21.40
2023-05-23T12:28:16.391Z,21.40
2023-05-23T12:31:22.941Z,21.40
2023-05-23T12:34:25.316Z,21.40
2023-05-23T12:37:27.735Z,21.40
2023-05-23T12:40:30.211Z,21.40
2023-05-23T12:43:32.841Z,21.40
2023-05-23T12:46:35.581Z,21.40
2023-05-23T12:49:38.677Z,21.40
2023-05-23T12:52:41.144Z,21.40
2023-05-23T12:55:43.733Z,21.40
2023-05-23T12:58:46.266Z,21.50
2023-05-23T13:01:48.584Z,21.40
2023-05-23T13:04:50.889Z,21.50
2023-05-23T13:07:53.205Z,21.50
2023-05-23T13:10:55.702Z,21.50
2023-05-23T13:13:58.413Z,21.50
2023-05-23T13:17:01.054Z,21.50
2023-05-23T13:20:05.428Z,21.40
2023-05-23T13:23:08.390Z,21.50
2023-05-23T13:26:10.924Z,21.50
2023-05-23T13:29:13.240Z,21.50
2023-05-23T13:32:15.863Z,21.50
2023-05-23T13:35:18.388Z,21.50
2023-05-23T13:38:26.681Z,21.50
2023-05-23T13:41:29.303Z,21.50
2023-05-23T13:44:31.625Z,21.50
2023-05-23T13:47:34.171Z,21.50
2023-05-23T13:50:36.786Z,21.50
2023-05-23T13:53:39.261Z,21.50
2023-05-23T13:56:42.005Z,21.50
2023-05-23T13:59:44.391Z,21.50
2023-05-23T14:02:46.929Z,21.50
2023-05-23T14:05:49.437Z,21.50
2023-05-23T14:08:51.931Z,21.50
2023-05-23T14:11:54.246Z,21.50
2023-05-23T14:14:56.832Z,21.50
2023-05-23T14:17:59.451Z,21.50
2023-05-23T14:21:01.724Z,21.50
2023-05-23T14:24:04.221Z,21.50
2023-05-23T14:27:08.684Z,21.50
2023-05-23T14:30:12.980Z,21.50
2023-05-23T14:33:15.747Z,21.50
2023-05-23T14:36:18.299Z,21.50
2023-05-23T14:39:20.541Z,21.50
2023-05-23T14:42:22.884Z,21.50
2023-05-23T14:45:25.415Z,21.50
2023-05-23T14:48:31.047Z,21.50
2023-05-23T14:51:46.236Z,21.50
2023-05-23T14:54:52.528Z,21.50
2023-05-23T14:57:54.938Z,21.50
2023-05-23T15:00:57.686Z,21.50
2023-05-23T15:04:00.608Z,21.50
2023-05-23T15:07:02.999Z,21.50
2023-05-23T15:10:06.856Z,21.50
2023-05-23T15:13:09.340Z,21.50
2023-05-23T15:16:11.979Z,21.50
2023-05-23T15:19:14.409Z,21.50
2023-05-23T15:22:34.341Z,21.60
2023-05-23T15:25:49.446Z,21.60
2023-05-23T15:28:52.216Z,21.60
2023-05-23T15:31:54.520Z,21.60
2023-05-23T15:34:56.799Z,21.60
2023-05-23T15:37:59.065Z,21.60
2023-05-23T15:41:01.669Z,21.60
2023-05-23T15:44:04.074Z,21.60
2023-05-23T15:47:06.481Z,21.60
2023-05-23T15:50:09.288Z,21.60
2023-05-23T15:53:11.611Z,21.60
2023-05-23T15:56:15.977Z,21.60
2023-05-23T15:59:18.484Z,21.60
2023-05-23T16:02:20.865Z,21.60
2023-05-23T16:05:24.032Z,21.50
2023-05-23T16:08:26.684Z,21.50
2023-05-23T16:11:28.946Z,21.50
2023-05-23T16:14:32.067Z,21.50
2023-05-23T16:17:34.424Z,21.50
2023-05-23T16:20:36.760Z,21.50
2023-05-23T16:23:39.065Z,21.50
2023-05-23T16:26:41.423Z,21.50
2023-05-23T16:29:43.652Z,21.50
2023-05-23T16:32:46.086Z,21.50
2023-05-23T16:35:48.476Z,21.50
2023-05-23T16:38:51.339Z,21.50
2023-05-23T16:41:54.808Z,21.50
2023-05-23T16:44:57.391Z,21.50
2023-05-23T16:48:01.324Z,21.50
2023-05-23T16:51:03.715Z,21.50
2023-05-23T16:54:06.034Z,21.50
2023-05-23T16:57:08.590Z,21.50
2023-05-23T17:00:11.720Z,21.50
2023-05-23T17:03:14.205Z,21.60
2023-05-23T17:06:16.518Z,21.50
2023-05-23T17:09:19.409Z,21.50
2023-05-23T17:12:22.022Z,21.50
2023-05-23T17:15:24.817Z,21.50
2023-05-23T17:18:27.125Z,21.50
2023-05-23T17:21:29.420Z,21.60
2023-05-23T17:24:31.751Z,21.50
2023-05-23T17:27:34.450Z,21.50
2023-05-23T17:30:36.740Z,21.50
2023-05-23T17:33:39.257Z,21.50
2023-05-23T17:36:41.582Z,21.50
2023-05-23T17:39:43.973Z,21.60
2023-05-23T17:42:46.310Z,21.50
2023-05-23T17:45:48.627Z,21.50
2023-05-23T17:48:51.831Z,21.60
2023-05-23T17:51:54.184Z,21.50
2023-05-23T17:54:57.810Z,21.60
2023-05-23T17:58:00.127Z,21.50
2023-05-23T18:01:02.711Z,21.50
2023-05-23T18:04:05.053Z,21.50
2023-05-23T18:07:10.666Z,21.50
2023-05-23T18:10:13.362Z,21.60
2023-05-23T18:13:15.913Z,21.60
2023-05-23T18:16:18.288Z,21.50
2023-05-23T18:19:20.805Z,21.50
2023-05-23T18:22:23.143Z,21.60
2023-05-23T18:25:28.525Z,21.50
2023-05-23T18:28:31.032Z,21.50
2023-05-23T18:31:33.413Z,21.60
2023-05-23T18:34:35.696Z,21.50
2023-05-23T18:37:38.865Z,21.50
2023-05-23T18:40:41.344Z,21.50
2023-05-23T18:43:44.063Z,21.50
2023-05-23T18:46:46.817Z,21.50
2023-05-23T18:49:49.943Z,21.50
2023-05-23T18:52:52.145Z,21.50
2023-05-23T18:55:54.932Z,21.50
2023-05-23T18:58:57.259Z,21.50
2023-05-23T19:02:00.606Z,21.50
2023-05-23T19:05:03.145Z,21.50
2023-05-23T19:11:41.249Z,21.50
2023-05-23T19:14:43.762Z,21.50
2023-05-23T19:17:48.353Z,21.50
2023-05-23T19:20:52.043Z,21.50
2023-05-23T19:23:55.151Z,21.50
2023-05-23T19:27:00.022Z,21.50
2023-05-23T19:30:02.520Z,21.50
2023-05-23T19:33:05.755Z,21.50
2023-05-23T19:36:08.160Z,21.50
2023-05-23T19:39:12.817Z,21.50
2023-05-23T19:42:15.452Z,21.50
2023-05-23T19:45:19.423Z,21.50
2023-05-23T19:48:21.878Z,21.50
2023-05-23T19:51:25.411Z,21.50
2023-05-23T19:54:28.395Z,21.50
2023-05-23T19:57:32.599Z,21.50
2023-05-23T20:00:35.287Z,21.50
2023-05-23T20:03:39.736Z,21.50
2023-05-23T21:26:29.868Z,21.30
2023-05-23T21:29:32.452Z,21.30
2023-05-23T21:32:34.950Z,21.40
2023-05-23T21:35:38.053Z,21.40
2023-05-23T21:38:40.871Z,21.40
2023-05-23T21:41:43.314Z,21.40
2023-05-23T21:44:45.771Z,21.40
2023-05-23T21:47:48.111Z,21.40
2023-05-23T21:50:50.413Z,21.40
2023-05-23T21:53:52.738Z,21.40
2023-05-23T21:56:55.109Z,21.40
2023-05-23T21:59:57.396Z,21.40
2023-05-23T22:02:59.772Z,21.40
2023-05-23T22:06:02.316Z,21.40
2023-05-23T22:09:05.964Z,21.40
2023-05-23T22:12:08.506Z,21.30
2023-05-23T22:15:11.423Z,21.40
2023-05-23T22:18:13.976Z,21.30
2023-05-23T22:21:16.311Z,21.40
2023-05-23T22:24:18.634Z,21.40
2023-05-23T22:27:21.049Z,21.40
2023-05-23T22:30:23.437Z,21.30
2023-05-23T22:33:25.799Z,21.40
2023-05-23T22:36:28.085Z,21.30
2023-05-23T22:39:30.424Z,21.30
2023-05-23T22:42:32.723Z,21.30
2023-05-23T22:45:40.852Z,21.30
2023-05-23T22:48:43.081Z,21.40
2023-05-23T22:51:45.433Z,21.40
2023-05-23T22:54:47.772Z,21.30
2023-05-23T22:57:50.117Z,21.30
2023-05-23T23:00:55.298Z,21.30
2023-05-23T23:03:57.690Z,21.30
2023-05-23T23:07:01.571Z,21.30
2023-05-23T23:10:04.061Z,21.30
2023-05-23T23:13:06.511Z,21.30
2023-05-23T23:16:08.931Z,21.30
2023-05-23T23:19:11.180Z,21.30
2023-05-23T23:22:13.544Z,21.30
2023-05-23T23:25:19.042Z,21.30
2023-05-23T23:28:21.650Z,21.30
2023-05-23T23:31:24.071Z,21.30
2023-05-23T23:34:26.832Z,21.30
2023-05-23T23:37:29.117Z,21.30
2023-05-23T23:40:31.492Z,21.30
2023-05-23T23:43:33.816Z,21.30
2023-05-23T23:46:36.299Z,21.30
2023-05-23T23:49:38.808Z,21.30
2023-05-23T23:52:41.605Z,21.30
2023-05-23T23:55:43.918Z,21.30
2023-05-23T23:58:46.189Z,21.30
